createdAt,value
2019-03-04T00:00:48.393Z,9.70
2019-03-04T00:03:18.109Z,9.80
2019-03-04T00:05:47.839Z,9.90
2019-03-04T00:08:17.547Z,10.00
2019-03-04T00:10:47.634Z,10.00
2019-03-04T00:13:17.312Z,10.10
2019-03-04T00:15:47.088Z,10.20
2019-03-04T00:18:16.805Z,10.20
2019-03-04T00:20:46.512Z,10.20
2019-03-04T00:23:16.228Z,10.20
2019-03-04T00:25:45.995Z,10.20
2019-03-04T00:28:15.646Z,10.20
2019-03-04T00:30:45.356Z,10.20
2019-03-04T00:33:15.043Z,10.20
2019-03-04T00:35:44.944Z,10.10
2019-03-04T00:38:14.948Z,10.20
2019-03-04T00:40:44.665Z,10.20
2019-03-04T00:43:14.315Z,10.20
2019-03-04T00:45:44.206Z,10.10
2019-03-04T00:48:13.941Z,10.10
2019-03-04T00:50:43.588Z,10.00
2019-03-04T00:53:13.352Z,10.00
2019-03-04T00:55:43.130Z,10.00
2019-03-04T00:58:12.890Z,10.00
2019-03-04T01:00:42.675Z,9.90
2019-03-04T01:03:12.358Z,9.90
2019-03-04T01:05:42.032Z,9.90
2019-03-04T01:08:11.907Z,9.90
2019-03-04T01:10:41.712Z,9.90
2019-03-04T01:13:11.415Z,9.90
2019-03-04T01:15:42.316Z,9.90
2019-03-04T01:18:12.024Z,9.90
2019-03-04T01:20:41.739Z,9.80
2019-03-04T01:23:11.541Z,9.90
2019-03-04T01:25:41.222Z,9.80
2019-03-04T01:28:11.098Z,9.80
2019-03-04T01:30:40.829Z,9.70
2019-03-04T01:33:10.501Z,9.60
2019-03-04T01:35:40.239Z,9.60
2019-03-04T01:38:09.964Z,9.50
2019-03-04T01:40:39.657Z,9.50
2019-03-04T01:43:09.494Z,9.40
2019-03-04T01:45:39.237Z,9.30
2019-03-04T01:48:09.030Z,9.30
2019-03-04T01:50:38.794Z,9.30
2019-03-04T01:53:08.956Z,9.40
2019-03-04T01:55:38.992Z,9.40
2019-03-04T01:58:08.694Z,9.40
2019-03-04T02:00:38.546Z,9.40
2019-03-04T02:03:08.257Z,9.30
2019-03-04T02:05:38.118Z,9.30
2019-03-04T02:08:07.928Z,9.30
2019-03-04T02:10:37.868Z,9.40
2019-03-04T02:13:07.536Z,9.40
2019-03-04T02:15:37.356Z,9.50
2019-03-04T02:18:07.053Z,9.50
2019-03-04T02:20:36.766Z,9.40
2019-03-04T02:23:06.482Z,9.40
2019-03-04T02:26:20.329Z,9.40
2019-03-04T02:28:50.044Z,9.50
2019-03-04T02:31:19.792Z,9.60
2019-03-04T02:33:49.620Z,9.60
2019-03-04T02:36:19.315Z,9.60
2019-03-04T02:38:49.810Z,9.60
2019-03-04T02:41:19.533Z,9.70
2019-03-04T02:43:49.332Z,9.80
2019-03-04T02:46:19.124Z,9.70
2019-03-04T02:48:48.838Z,9.80
2019-03-04T02:51:18.612Z,9.80
2019-03-04T02:53:49.477Z,9.80
2019-03-04T02:56:19.219Z,9.80
2019-03-04T02:58:49.053Z,9.90
2019-03-04T03:01:18.758Z,9.80
2019-03-04T03:03:48.594Z,9.90
2019-03-04T03:06:18.343Z,9.80
2019-03-04T03:08:49.190Z,9.90
2019-03-04T03:11:18.922Z,9.80
2019-03-04T03:13:48.739Z,9.80
2019-03-04T03:16:20.555Z,9.80
2019-03-04T03:18:50.335Z,9.80
2019-03-04T03:21:20.058Z,9.70
2019-03-04T03:23:49.762Z,9.70
2019-03-04T03:26:19.502Z,9.60
2019-03-04T03:28:49.242Z,9.60
2019-03-04T03:31:19.029Z,9.60
2019-03-04T03:33:48.747Z,9.50
2019-03-04T03:36:21.006Z,9.50
2019-03-04T03:38:52.012Z,9.40
2019-03-04T03:41:21.787Z,9.30
2019-03-04T03:43:51.575Z,9.30
2019-03-04T03:46:21.358Z,9.30
2019-03-04T03:48:52.890Z,9.30
2019-03-04T03:51:22.775Z,9.40
2019-03-04T03:53:52.670Z,9.40
2019-03-04T03:56:22.894Z,9.30
2019-03-04T03:58:52.599Z,9.20
2019-03-04T04:01:22.567Z,9.20
2019-03-04T04:03:52.304Z,9.20
2019-03-04T04:06:21.980Z,9.30
2019-03-04T04:08:51.730Z,9.30
2019-03-04T04:11:21.506Z,9.30
2019-03-04T04:13:51.210Z,9.30
2019-03-04T04:16:20.956Z,9.30
2019-03-04T04:18:52.738Z,9.30
2019-03-04T04:21:24.436Z,9.30
2019-03-04T04:23:55.005Z,9.30
2019-03-04T04:26:24.721Z,9.30
2019-03-04T04:29:22.800Z,9.40
2019-03-04T04:31:52.567Z,9.40
2019-03-04T04:34:22.276Z,9.40
2019-03-04T04:36:51.979Z,9.40
2019-03-04T04:39:23.251Z,9.40
2019-03-04T04:41:53.149Z,9.40
2019-03-04T04:44:22.909Z,9.30
2019-03-04T04:46:56.855Z,9.30
2019-03-04T04:49:36.703Z,9.30
2019-03-04T04:52:06.493Z,9.20
2019-03-04T04:54:36.308Z,9.10
2019-03-04T04:57:06.092Z,9.20
2019-03-04T04:59:35.825Z,9.20
2019-03-04T05:02:05.696Z,9.20
2019-03-04T05:04:35.615Z,9.20
2019-03-04T05:07:05.395Z,9.20
2019-03-04T05:09:35.116Z,9.20
2019-03-04T05:12:04.882Z,9.30
2019-03-04T05:14:34.596Z,9.20
2019-03-04T05:17:04.421Z,9.30
2019-03-04T05:19:34.486Z,9.20
2019-03-04T05:22:04.222Z,9.10
2019-03-04T05:24:33.933Z,9.20
2019-03-04T05:27:05.886Z,9.10
2019-03-04T05:29:35.658Z,9.10
2019-03-04T05:32:05.382Z,9.10
2019-03-04T05:34:37.334Z,9.00
2019-03-04T05:37:07.103Z,9.00
2019-03-04T05:39:36.817Z,9.00
2019-03-04T05:42:06.750Z,8.90
2019-03-04T05:44:36.485Z,8.90
2019-03-04T05:47:06.211Z,8.80
2019-03-04T05:49:35.918Z,8.80
2019-03-04T05:52:05.632Z,8.80
2019-03-04T05:54:35.518Z,8.80
2019-03-04T05:57:05.459Z,8.80
2019-03-04T05:59:35.689Z,8.80
2019-03-04T06:02:15.614Z,8.70
2019-03-04T06:04:46.777Z,8.70
2019-03-04T06:07:35.288Z,8.70
2019-03-04T06:10:06.225Z,9.70
2019-03-04T06:12:35.921Z,10.90
2019-03-04T06:15:06.853Z,10.70
2019-03-04T06:17:36.683Z,10.40
2019-03-04T06:20:42.445Z,10.20
2019-03-04T06:23:12.840Z,9.90
2019-03-04T06:26:03.519Z,9.70
2019-03-04T06:31:41.822Z,9.50
2019-03-04T06:34:29.571Z,9.30
2019-03-04T06:37:16.570Z,9.30
2019-03-04T06:39:46.580Z,9.30
2019-03-04T06:42:16.258Z,9.40
2019-03-04T06:44:45.907Z,9.40
2019-03-04T06:47:15.529Z,9.40
2019-03-04T06:49:45.076Z,9.40
2019-03-04T06:52:16.873Z,9.50
2019-03-04T06:55:22.518Z,9.50
2019-03-04T06:57:53.273Z,9.50
2019-03-04T07:00:52.828Z,9.60
2019-03-04T07:03:31.545Z,9.70
2019-03-04T07:06:01.149Z,9.80
2019-03-04T07:09:12.452Z,9.80
2019-03-04T07:11:43.425Z,10.00
2019-03-04T07:14:13.002Z,10.40
2019-03-04T07:16:42.599Z,10.60
2019-03-04T07:19:24.090Z,10.90
2019-03-04T07:21:53.702Z,11.00
2019-03-04T07:24:23.318Z,11.20
2019-03-04T07:26:52.973Z,11.40
2019-03-04T07:29:22.682Z,11.60
2019-03-04T07:31:52.294Z,11.70
2019-03-04T07:34:21.997Z,11.70
2019-03-04T07:36:51.627Z,11.70
2019-03-04T07:39:21.304Z,11.70
2019-03-04T07:41:53.470Z,11.70
2019-03-04T07:44:23.070Z,11.80
2019-03-04T07:46:52.746Z,11.80
2019-03-04T07:49:22.407Z,11.80
2019-03-04T07:51:55.181Z,12.00
2019-03-04T07:54:24.908Z,12.10
2019-03-04T07:56:54.590Z,12.20
2019-03-04T07:59:24.273Z,12.30
2019-03-04T08:01:53.846Z,12.50
2019-03-04T08:04:23.482Z,12.60
2019-03-04T08:07:12.321Z,12.80
2019-03-04T08:10:20.995Z,12.90
2019-03-04T08:13:06.131Z,13.00
2019-03-04T08:15:55.652Z,13.10
2019-03-04T08:18:25.356Z,13.10
2019-03-04T08:20:55.616Z,13.10
2019-03-04T08:23:25.280Z,13.10
2019-03-04T08:25:54.936Z,13.20
2019-03-04T08:28:24.593Z,13.30
2019-03-04T08:30:54.188Z,13.40
2019-03-04T08:33:23.772Z,13.40
2019-03-04T08:35:53.422Z,13.40
2019-03-04T08:38:23.091Z,13.30
2019-03-04T08:40:52.836Z,13.30
2019-03-04T08:43:22.613Z,13.30
2019-03-04T08:45:52.259Z,13.30
2019-03-04T08:48:21.910Z,13.30
2019-03-04T08:50:51.604Z,13.40
2019-03-04T08:53:21.258Z,13.50
2019-03-04T08:55:50.981Z,13.60
2019-03-04T08:58:20.795Z,13.70
2019-03-04T09:00:50.472Z,13.70
2019-03-04T09:03:20.125Z,13.80
2019-03-04T09:05:49.798Z,13.90
2019-03-04T09:08:19.522Z,13.80
2019-03-04T09:10:49.242Z,13.80
2019-03-04T09:13:18.928Z,13.80
2019-03-04T09:15:48.581Z,13.80
2019-03-04T09:18:18.299Z,13.80
2019-03-04T09:20:48.210Z,13.90
2019-03-04T09:23:17.954Z,14.10
2019-03-04T09:26:00.947Z,14.20
2019-03-04T09:28:30.658Z,14.40
2019-03-04T09:31:00.351Z,14.60
2019-03-04T09:33:30.093Z,14.80
2019-03-04T09:35:59.788Z,15.00
2019-03-04T09:38:29.462Z,15.20
2019-03-04T09:40:59.231Z,15.40
2019-03-04T09:43:28.920Z,15.60
2019-03-04T09:45:58.692Z,15.80
2019-03-04T09:48:28.417Z,15.90
2019-03-04T09:50:58.109Z,15.90
2019-03-04T09:53:27.871Z,15.90
2019-03-04T09:55:57.545Z,15.90
2019-03-04T09:58:27.336Z,15.80
2019-03-04T10:01:25.832Z,15.90
2019-03-04T10:04:16.457Z,15.80
2019-03-04T10:07:27.560Z,15.80
2019-03-04T10:10:50.108Z,15.80
2019-03-04T10:13:56.481Z,15.80
2019-03-04T10:16:54.420Z,15.80
2019-03-04T10:19:45.154Z,15.80
2019-03-04T10:22:38.049Z,15.80
2019-03-04T10:25:40.396Z,15.80
2019-03-04T10:28:41.681Z,15.80
2019-03-04T10:31:42.041Z,15.80
2019-03-04T10:34:48.300Z,15.90
2019-03-04T10:37:34.611Z,15.90
2019-03-04T10:40:54.380Z,15.90
2019-03-04T10:44:13.934Z,15.80
2019-03-04T10:46:59.878Z,15.90
2019-03-04T10:49:35.165Z,15.90
2019-03-04T10:52:05.182Z,15.90
2019-03-04T10:54:34.812Z,15.80
2019-03-04T10:57:04.486Z,15.70
2019-03-04T10:59:34.154Z,15.70
2019-03-04T11:02:03.998Z,15.70
2019-03-04T11:04:33.707Z,15.70
2019-03-04T11:07:03.670Z,15.80
2019-03-04T11:09:33.339Z,15.90
2019-03-04T11:12:02.948Z,15.90
2019-03-04T11:14:32.728Z,15.90
2019-03-04T11:17:02.371Z,15.90
2019-03-04T11:19:32.144Z,15.90
2019-03-04T11:22:01.830Z,15.80
2019-03-04T11:24:31.576Z,15.80
2019-03-04T11:27:01.440Z,15.80
2019-03-04T11:29:31.072Z,15.90
2019-03-04T11:32:00.892Z,15.90
2019-03-04T11:34:30.608Z,15.80
2019-03-04T11:37:00.301Z,15.80
2019-03-04T11:39:54.632Z,15.90
2019-03-04T11:42:24.315Z,15.80
2019-03-04T11:44:53.966Z,15.80
2019-03-04T11:47:26.596Z,15.70
2019-03-04T11:49:58.334Z,15.60
2019-03-04T11:52:28.059Z,15.50
2019-03-04T11:55:00.014Z,15.40
2019-03-04T11:57:29.680Z,15.30
2019-03-04T11:59:59.393Z,15.30
2019-03-04T12:02:38.519Z,15.20
2019-03-04T12:05:03.215Z,15.20
2019-03-04T12:07:32.923Z,15.10
2019-03-04T12:10:02.603Z,15.00
2019-03-04T12:12:32.219Z,15.00
2019-03-04T12:15:01.823Z,14.90
2019-03-04T12:17:31.505Z,14.90
2019-03-04T12:20:01.147Z,14.80
2019-03-04T12:22:30.754Z,14.80
2019-03-04T12:25:01.444Z,14.70
2019-03-04T12:27:33.437Z,14.70
2019-03-04T12:30:03.054Z,14.60
2019-03-04T12:32:34.095Z,14.60
2019-03-04T12:35:07.354Z,14.50
2019-03-04T12:37:36.999Z,14.40
2019-03-04T12:40:12.041Z,14.40
2019-03-04T12:42:44.846Z,14.40
2019-03-04T12:45:15.619Z,14.40
2019-03-04T12:47:45.562Z,14.40
2019-03-04T12:50:18.970Z,14.40
2019-03-04T12:52:48.742Z,14.40
2019-03-04T12:55:18.571Z,14.40
2019-03-04T12:57:48.203Z,14.50
2019-03-04T13:00:20.140Z,14.60
2019-03-04T13:02:57.187Z,14.60
2019-03-04T13:05:21.198Z,14.60
2019-03-04T13:07:50.871Z,14.60
2019-03-04T13:10:21.080Z,14.70
2019-03-04T13:12:50.760Z,14.80
2019-03-04T13:15:22.240Z,14.90
2019-03-04T13:17:52.004Z,14.90
2019-03-04T13:20:21.685Z,15.00
2019-03-04T13:22:51.329Z,15.10
2019-03-04T13:25:20.970Z,15.20
2019-03-04T13:27:50.606Z,15.30
2019-03-04T13:30:21.895Z,15.40
2019-03-04T13:32:51.900Z,15.40
2019-03-04T13:35:24.753Z,15.50
2019-03-04T13:37:56.874Z,15.50
2019-03-04T13:40:28.029Z,15.60
2019-03-04T13:42:57.736Z,15.60
2019-03-04T13:45:27.848Z,15.60
2019-03-04T13:47:57.691Z,15.60
2019-03-04T13:50:29.168Z,15.50
2019-03-04T13:53:00.232Z,15.60
2019-03-04T13:55:32.608Z,15.60
2019-03-04T13:58:02.333Z,15.60
2019-03-04T14:00:32.716Z,15.60
2019-03-04T14:03:02.348Z,15.50
2019-03-04T14:05:32.129Z,15.50
2019-03-04T14:08:01.847Z,15.40
2019-03-04T14:10:33.827Z,15.50
2019-03-04T14:13:03.552Z,15.60
2019-03-04T14:15:34.943Z,15.70
2019-03-04T14:18:04.734Z,15.80
2019-03-04T14:20:34.691Z,15.90
2019-03-04T14:23:04.564Z,16.00
2019-03-04T14:25:34.171Z,16.10
2019-03-04T14:28:03.948Z,16.20
2019-03-04T14:30:33.662Z,16.20
2019-03-04T14:33:03.338Z,16.30
2019-03-04T14:35:32.906Z,16.30
2019-03-04T14:38:02.512Z,16.40
2019-03-04T14:40:33.224Z,16.40
2019-03-04T14:43:02.865Z,16.40
2019-03-04T14:45:32.866Z,16.40
2019-03-04T14:48:02.585Z,16.40
2019-03-04T14:50:32.325Z,16.40
2019-03-04T14:53:01.996Z,16.40
2019-03-04T14:55:31.655Z,16.40
2019-03-04T14:58:02.162Z,16.40
2019-03-04T15:00:36.574Z,16.40
2019-03-04T15:03:23.137Z,16.30
2019-03-04T15:06:06.786Z,16.20
2019-03-04T15:08:40.287Z,16.20
2019-03-04T15:11:13.076Z,16.10
2019-03-04T15:13:44.021Z,16.00
2019-03-04T15:16:18.553Z,16.00
2019-03-04T15:18:49.772Z,15.90
2019-03-04T15:21:34.274Z,15.90
2019-03-04T15:24:06.354Z,15.80
2019-03-04T15:26:42.988Z,15.70
2019-03-04T15:29:10.642Z,15.60
2019-03-04T15:31:40.385Z,15.60
2019-03-04T15:34:13.042Z,15.50
2019-03-04T15:36:42.786Z,15.50
2019-03-04T15:39:23.282Z,15.40
2019-03-04T15:41:52.536Z,15.40
2019-03-04T15:44:22.320Z,15.40
2019-03-04T15:46:56.310Z,15.40
2019-03-04T15:49:26.183Z,15.30
2019-03-04T15:51:55.776Z,15.30
2019-03-04T15:54:25.443Z,15.20
2019-03-04T15:56:55.158Z,15.20
2019-03-04T15:59:24.856Z,15.10
2019-03-04T16:01:54.492Z,15.10
2019-03-04T16:04:24.190Z,15.10
2019-03-04T16:06:55.781Z,15.10
2019-03-04T16:09:25.732Z,15.00
2019-03-04T16:11:55.426Z,15.00
2019-03-04T16:14:25.040Z,14.90
2019-03-04T16:16:54.694Z,14.90
2019-03-04T16:19:24.580Z,14.80
2019-03-04T16:21:55.320Z,14.80
2019-03-04T16:24:27.947Z,14.70
2019-03-04T16:27:02.951Z,14.70
2019-03-04T16:29:37.113Z,14.60
2019-03-04T16:32:04.678Z,14.50
2019-03-04T16:34:37.581Z,14.50
2019-03-04T16:37:08.785Z,14.40
2019-03-04T16:39:39.694Z,14.30
2019-03-04T16:42:10.134Z,14.30
2019-03-04T16:44:40.171Z,14.30
2019-03-04T16:47:12.061Z,14.20
2019-03-04T16:49:45.586Z,14.20
2019-03-04T16:52:14.729Z,14.10
2019-03-04T16:54:46.064Z,14.10
2019-03-04T16:57:15.748Z,14.10
2019-03-04T16:59:48.476Z,14.10
2019-03-04T17:02:29.041Z,14.10
2019-03-04T17:04:59.838Z,14.00
2019-03-04T17:07:29.623Z,13.90
2019-03-04T17:09:59.286Z,13.80
2019-03-04T17:12:28.882Z,13.80
2019-03-04T17:15:00.161Z,13.80
2019-03-04T17:17:30.281Z,13.70
2019-03-04T17:19:59.920Z,13.70
2019-03-04T17:22:29.696Z,13.60
2019-03-04T17:24:59.303Z,13.60
2019-03-04T17:27:29.021Z,13.60
2019-03-04T17:29:58.643Z,13.70
2019-03-04T17:32:28.432Z,13.60
2019-03-04T17:34:58.314Z,13.60
2019-03-04T17:37:33.446Z,13.50
2019-03-04T17:40:10.438Z,13.60
2019-03-04T17:42:40.451Z,13.60
2019-03-04T17:45:16.982Z,13.50
2019-03-04T17:47:46.723Z,13.50
2019-03-04T17:50:19.367Z,13.50
2019-03-04T17:52:49.082Z,13.40
2019-03-04T17:55:18.886Z,13.40
2019-03-04T17:57:48.681Z,13.30
2019-03-04T18:00:19.763Z,13.30
2019-03-04T18:02:51.314Z,13.30
2019-03-04T18:05:30.162Z,13.20
2019-03-04T18:07:59.875Z,13.20
2019-03-04T18:10:30.938Z,13.10
2019-03-04T18:13:00.528Z,13.10
2019-03-04T18:15:45.469Z,13.10
2019-03-04T18:18:15.134Z,13.00
2019-03-04T18:20:46.009Z,13.00
2019-03-04T18:23:16.121Z,12.90
2019-03-04T18:25:48.755Z,12.80
2019-03-04T18:28:57.062Z,12.80
2019-03-04T18:31:57.064Z,12.80
2019-03-04T18:35:43.566Z,12.70
2019-03-04T18:39:03.532Z,12.70
2019-03-04T18:42:02.534Z,12.70
2019-03-04T18:45:16.806Z,12.60
2019-03-04T18:48:59.384Z,12.50
2019-03-04T18:51:21.049Z,12.50
2019-03-04T18:53:54.807Z,12.40
2019-03-04T18:56:44.463Z,12.40
2019-03-04T18:59:06.084Z,12.40
2019-03-04T19:01:53.339Z,12.30
2019-03-04T19:04:25.688Z,12.30
2019-03-04T19:07:02.927Z,12.30
2019-03-04T19:09:37.578Z,12.20
2019-03-04T19:12:07.219Z,12.20
2019-03-04T19:14:37.159Z,12.20
2019-03-04T19:17:07.872Z,12.20
2019-03-04T19:19:38.803Z,12.10
2019-03-04T19:22:10.309Z,12.10
2019-03-04T19:24:40.529Z,12.10
2019-03-04T19:27:10.156Z,12.10
2019-03-04T19:29:39.754Z,12.10
2019-03-04T19:32:09.457Z,12.00
2019-03-04T19:34:39.150Z,12.00
2019-03-04T19:37:09.065Z,11.90
2019-03-04T19:39:38.746Z,11.90
2019-03-04T19:42:08.440Z,11.90
2019-03-04T19:44:37.975Z,11.90
2019-03-04T19:47:24.458Z,12.40
2019-03-04T19:49:58.497Z,12.50
2019-03-04T19:52:29.895Z,12.30
2019-03-04T19:55:02.093Z,12.20
2019-03-04T19:57:35.861Z,12.10
2019-03-04T20:00:12.477Z,12.00
2019-03-04T20:02:43.338Z,11.90
2019-03-04T20:05:13.291Z,11.80
2019-03-04T20:07:43.898Z,11.80
2019-03-04T20:10:14.663Z,11.80
2019-03-04T20:12:44.453Z,11.80
2019-03-04T20:15:19.614Z,11.80
2019-03-04T20:17:49.371Z,11.70
2019-03-04T20:20:27.171Z,11.70
2019-03-04T20:22:56.600Z,11.70
2019-03-04T20:25:26.797Z,11.70
2019-03-04T20:27:56.541Z,11.70
2019-03-04T20:30:26.414Z,11.60
2019-03-04T20:32:58.432Z,11.60
2019-03-04T20:35:46.014Z,11.60
2019-03-04T20:38:34.713Z,11.60
2019-03-04T20:41:38.239Z,11.70
2019-03-04T20:44:49.743Z,11.70
2019-03-04T20:47:51.234Z,11.60
2019-03-04T20:50:49.456Z,11.60
2019-03-04T20:53:47.861Z,11.60
2019-03-04T20:56:31.283Z,11.60
2019-03-04T21:00:01.402Z,11.60
2019-03-04T21:02:59.664Z,11.30
2019-03-04T21:09:36.612Z,10.00
2019-03-04T21:13:00.150Z,9.60
2019-03-04T21:16:19.048Z,9.50
2019-03-04T21:23:18.409Z,9.30
2019-03-04T21:34:16.852Z,9.10
2019-03-04T21:37:01.294Z,9.00
2019-03-04T21:39:36.846Z,8.90
2019-03-04T21:42:17.093Z,8.80
2019-03-04T21:45:42.421Z,8.70
2019-03-04T21:48:19.369Z,8.60
2019-03-04T21:51:38.280Z,8.60
2019-03-04T21:54:04.044Z,8.50
2019-03-04T21:57:04.105Z,8.60
2019-03-04T21:59:33.731Z,8.60
2019-03-04T22:02:19.632Z,8.60
2019-03-04T22:04:49.226Z,8.60
2019-03-04T22:07:19.704Z,8.60
2019-03-04T22:09:49.464Z,8.50
2019-03-04T22:12:19.125Z,8.50
2019-03-04T22:14:51.071Z,8.50
2019-03-04T22:17:24.208Z,8.50
2019-03-04T22:19:55.216Z,8.50
2019-03-04T22:22:26.499Z,8.50
2019-03-04T22:24:56.229Z,8.50
2019-03-04T22:27:25.807Z,8.50
2019-03-04T22:29:55.413Z,8.50
2019-03-04T22:32:25.127Z,8.50
2019-03-04T22:34:54.712Z,8.50
2019-03-04T22:37:24.395Z,8.40
2019-03-04T22:39:54.092Z,8.40
2019-03-04T22:42:23.798Z,8.30
2019-03-04T22:44:53.570Z,8.30
2019-03-04T22:47:23.423Z,8.20
2019-03-04T22:49:54.968Z,8.20
2019-03-04T22:52:24.618Z,8.10
2019-03-04T22:54:54.740Z,8.10
2019-03-04T22:57:24.327Z,8.10
2019-03-04T22:59:53.956Z,8.10
2019-03-04T23:02:25.340Z,8.10
2019-03-04T23:05:12.133Z,8.00
2019-03-04T23:07:52.909Z,8.00
2019-03-04T23:10:38.558Z,8.10
2019-03-04T23:13:22.788Z,8.10
2019-03-04T23:15:55.276Z,8.10
2019-03-04T23:18:24.742Z,8.10
2019-03-04T23:20:54.421Z,8.10
2019-03-04T23:23:24.099Z,8.10
2019-03-04T23:25:56.264Z,8.20
2019-03-04T23:28:24.989Z,8.10
2019-03-04T23:30:54.674Z,8.10
2019-03-04T23:33:24.355Z,8.10
2019-03-04T23:35:56.500Z,8.10
2019-03-04T23:38:26.194Z,8.10
2019-03-04T23:40:55.847Z,8.10
2019-03-04T23:43:25.722Z,8.10
2019-03-04T23:45:55.371Z,8.10
2019-03-04T23:48:25.067Z,8.10
2019-03-04T23:50:54.954Z,8.10
2019-03-04T23:53:24.614Z,8.10
2019-03-04T23:55:55.594Z,8.10
2019-03-04T23:58:25.313Z,8.10
